Time;durP1;ratioP1;P1;durP2;ratioP2;P2;SDS_P1;SDS_P2;PMS_P1;PMS_P2;Temp;Humidity;BMP_temperature;BMP_pressure;BME280_temperature;BME280_humidity;BME280_pressure;Samples;Min_cycle;Max_cycle;Signal;HPM_P1;HPM_P2
2023/08/22 00:00:31;;;;;;;8.07;4.25;;;;;;;;;;5018474;28;20079;-75
2023/08/22 00:02:58;;;;;;;10.15;4.70;;;;;;;;;;5018223;28;20396;-75
2023/08/22 00:05:23;;;;;;;13.07;6.10;;;;;;;;;;5020455;28;20061;-75
2023/08/22 00:07:49;;;;;;;8.90;5.25;;;;;;;;;;5034546;28;20045;-75
2023/08/22 00:10:14;;;;;;;13.90;5.97;;;;;;;;;;5036033;28;20018;-76
2023/08/22 00:12:40;;;;;;;8.82;5.50;;;;;;;;;;5034496;28;20017;-76
2023/08/22 00:15:09;;;;;;;8.25;5.80;;;;;;;;;;5035677;28;20109;-76
2023/08/22 00:17:35;;;;;;;7.43;3.92;;;;;;;;;;5034003;28;20026;-75
2023/08/22 00:20:00;;;;;;;7.10;4.10;;;;;;;;;;5018171;28;20512;-75
2023/08/22 00:22:25;;;;;;;6.38;4.50;;;;;;;;;;5000976;28;20029;-75
2023/08/22 00:24:51;;;;;;;7.40;4.70;;;;;;;;;;5017673;28;20025;-75
2023/08/22 00:27:16;;;;;;;7.25;4.05;;;;;;;;;;5018078;28;20048;-75
2023/08/22 00:29:41;;;;;;;5.90;4.20;;;;;;;;;;5035371;28;20025;-75
2023/08/22 00:32:06;;;;;;;9.57;5.28;;;;;;;;;;5034344;28;20021;-76
2023/08/22 00:34:32;;;;;;;8.68;4.00;;;;;;;;;;5035371;28;20479;-76
2023/08/22 00:37:00;;;;;;;11.18;5.75;;;;;;;;;;5035063;28;20025;-76
2023/08/22 00:39:25;;;;;;;12.48;5.60;;;;;;;;;;5035586;28;20032;-75
2023/08/22 00:41:51;;;;;;;8.90;5.45;;;;;;;;;;5016943;28;20021;-76
2023/08/22 00:44:16;;;;;;;9.80;5.63;;;;;;;;;;5016808;28;20480;-75
2023/08/22 00:46:41;;;;;;;23.08;6.68;;;;;;;;;;5035133;28;20059;-75
2023/08/22 00:49:10;;;;;;;15.35;6.88;;;;;;;;;;5018151;28;20033;-75
2023/08/22 00:51:37;;;;;;;16.60;7.10;;;;;;;;;;5001197;28;20026;-75
2023/08/22 00:54:03;;;;;;;17.25;6.93;;;;;;;;;;5001127;28;20115;-75
2023/08/22 00:56:28;;;;;;;14.77;6.70;;;;;;;;;;5000418;28;20128;-75
2023/08/22 00:58:54;;;;;;;13.82;7.47;;;;;;;;;;5017167;28;20128;-75
2023/08/22 01:01:19;;;;;;;11.32;6.20;;;;;;;;;;5034998;28;20025;-75
2023/08/22 01:03:44;;;;;;;11.38;6.32;;;;;;;;;;5033832;28;20100;-75
2023/08/22 01:06:39;;;;;;;10.18;5.90;;;;;;;;;;5016855;28;20068;-75
2023/08/22 01:09:11;;;;;;;12.35;5.38;;;;;;;;;;5016807;28;20395;-75
2023/08/22 01:11:45;;;;;;;10.18;5.50;;;;;;;;;;5017488;28;20087;-76
2023/08/22 01:14:14;;;;;;;6.70;4.28;;;;;;;;;;5017011;28;20029;-75
2023/08/22 01:16:40;;;;;;;5.47;3.70;;;;;;;;;;5016034;28;20052;-75
2023/08/22 01:19:07;;;;;;;11.48;6.40;;;;;;;;;;5016810;28;20479;-75
2023/08/22 01:21:35;;;;;;;11.10;5.95;;;;;;;;;;5016986;28;20029;-75
2023/08/22 01:24:02;;;;;;;8.52;4.90;;;;;;;;;;5016238;28;20044;-75
2023/08/22 01:26:27;;;;;;;8.90;5.63;;;;;;;;;;5016702;28;20072;-75
2023/08/22 01:28:57;;;;;;;10.35;5.07;;;;;;;;;;5030424;28;20395;-75
2023/08/22 01:31:44;;;;;;;9.30;5.32;;;;;;;;;;5017368;28;20021;-75
2023/08/22 01:34:20;;;;;;;10.55;5.57;;;;;;;;;;5032704;28;20053;-75
2023/08/22 01:36:46;;;;;;;13.02;5.80;;;;;;;;;;4999298;28;20076;-76
2023/08/22 01:39:14;;;;;;;12.50;5.88;;;;;;;;;;5013446;28;20528;-76
2023/08/22 01:41:40;;;;;;;10.75;6.28;;;;;;;;;;4997143;28;20110;-76
2023/08/22 01:44:05;;;;;;;10.27;5.15;;;;;;;;;;5012993;28;20436;-75
2023/08/22 01:46:30;;;;;;;8.80;5.88;;;;;;;;;;5024870;28;20035;-75
2023/08/22 01:48:56;;;;;;;12.02;6.22;;;;;;;;;;5034070;28;20037;-76
2023/08/22 01:51:21;;;;;;;10.93;5.10;;;;;;;;;;5034114;28;20447;-75
2023/08/22 01:53:47;;;;;;;9.05;5.15;;;;;;;;;;5034161;28;20017;-75
2023/08/22 01:56:12;;;;;;;9.32;4.80;;;;;;;;;;5016194;28;20076;-75
2023/08/22 01:58:37;;;;;;;9.13;4.45;;;;;;;;;;5032594;28;20197;-75
2023/08/22 02:01:10;;;;;;;14.07;7.32;;;;;;;;;;5018947;28;20033;-75
2023/08/22 02:03:35;;;;;;;11.80;5.05;;;;;;;;;;5029259;28;20039;-75
2023/08/22 02:06:00;;;;;;;8.98;5.00;;;;;;;;;;5016105;28;20108;-75
2023/08/22 02:08:25;;;;;;;10.15;5.55;;;;;;;;;;5013833;28;20410;-75
2023/08/22 02:10:51;;;;;;;12.57;6.57;;;;;;;;;;5022243;28;20053;-75
2023/08/22 02:13:16;;;;;;;14.15;7.63;;;;;;;;;;5025825;28;20056;-75
2023/08/22 02:15:41;;;;;;;13.52;6.93;;;;;;;;;;5016022;28;20021;-75
2023/08/22 02:18:07;;;;;;;9.82;6.20;;;;;;;;;;5033304;28;20029;-75
2023/08/22 02:20:34;;;;;;;11.73;5.40;;;;;;;;;;5033653;28;20431;-75
2023/08/22 02:23:02;;;;;;;11.05;6.07;;;;;;;;;;5016281;28;20064;-75
2023/08/22 02:25:27;;;;;;;14.00;5.88;;;;;;;;;;5033525;28;20035;-75
2023/08/22 02:27:52;;;;;;;9.02;5.00;;;;;;;;;;5032163;28;20014;-75
2023/08/22 02:30:17;;;;;;;8.30;4.20;;;;;;;;;;5033539;28;20079;-75
2023/08/22 02:32:43;;;;;;;7.13;4.13;;;;;;;;;;5033017;28;20025;-75
2023/08/22 02:35:08;;;;;;;8.75;5.38;;;;;;;;;;5033497;28;20033;-75
2023/08/22 02:37:33;;;;;;;9.10;4.82;;;;;;;;;;5033136;28;20068;-75
2023/08/22 02:39:59;;;;;;;12.90;6.10;;;;;;;;;;5013545;28;20108;-75
2023/08/22 02:42:24;;;;;;;10.45;5.57;;;;;;;;;;5033135;28;20079;-75
2023/08/22 02:44:49;;;;;;;9.13;5.20;;;;;;;;;;5032571;28;20056;-75
2023/08/22 02:47:15;;;;;;;9.65;4.68;;;;;;;;;;5013868;28;20022;-75
2023/08/22 02:49:40;;;;;;;8.15;5.05;;;;;;;;;;5033085;28;20532;-75
2023/08/22 02:52:05;;;;;;;7.35;4.60;;;;;;;;;;5033046;28;20029;-75
2023/08/22 02:54:31;;;;;;;6.53;4.03;;;;;;;;;;5015283;28;20025;-75
2023/08/22 02:56:56;;;;;;;9.43;4.97;;;;;;;;;;5031582;28;20510;-75
2023/08/22 02:59:21;;;;;;;7.93;4.03;;;;;;;;;;5031207;28;20031;-75
2023/08/22 03:01:46;;;;;;;9.23;4.55;;;;;;;;;;5031631;28;20021;-75
2023/08/22 03:04:12;;;;;;;10.75;4.68;;;;;;;;;;5032906;28;20061;-75
2023/08/22 03:06:37;;;;;;;7.35;4.20;;;;;;;;;;5032807;28;20013;-75
2023/08/22 03:09:03;;;;;;;6.50;4.07;;;;;;;;;;5011864;28;20033;-75
2023/08/22 03:11:28;;;;;;;5.15;3.83;;;;;;;;;;5032916;28;20025;-75
2023/08/22 03:13:53;;;;;;;7.38;3.70;;;;;;;;;;5030098;28;20507;-74
2023/08/22 03:16:19;;;;;;;6.90;4.55;;;;;;;;;;5032195;28;20026;-73
2023/08/22 03:18:44;;;;;;;9.43;5.03;;;;;;;;;;5031901;28;20026;-73
2023/08/22 03:21:09;;;;;;;7.63;5.07;;;;;;;;;;5026284;28;20115;-73
2023/08/22 03:23:35;;;;;;;11.05;6.07;;;;;;;;;;5012383;28;20109;-73
2023/08/22 03:26:02;;;;;;;9.18;4.88;;;;;;;;;;4995727;28;20424;-73
2023/08/22 03:28:28;;;;;;;7.03;4.72;;;;;;;;;;5027489;28;20017;-73
2023/08/22 03:30:57;;;;;;;9.43;4.63;;;;;;;;;;5012560;28;20380;-73
2023/08/22 03:33:25;;;;;;;11.27;5.65;;;;;;;;;;4994827;28;20431;-73
2023/08/22 03:35:53;;;;;;;10.32;6.82;;;;;;;;;;4995411;28;20108;-73
2023/08/22 03:38:19;;;;;;;10.48;6.38;;;;;;;;;;4995074;28;20030;-73
2023/08/22 03:40:44;;;;;;;10.65;6.05;;;;;;;;;;5028038;28;20067;-73
2023/08/22 03:43:09;;;;;;;9.20;4.50;;;;;;;;;;5030018;28;20032;-73
2023/08/22 03:45:34;;;;;;;11.13;5.40;;;;;;;;;;5032137;28;20035;-73
2023/08/22 03:48:03;;;;;;;7.65;4.40;;;;;;;;;;5014521;28;20013;-73
2023/08/22 03:50:29;;;;;;;9.25;5.15;;;;;;;;;;5019752;28;20499;-73
2023/08/22 03:52:55;;;;;;;7.10;3.88;;;;;;;;;;5030479;28;20404;-73
2023/08/22 03:55:20;;;;;;;7.60;4.57;;;;;;;;;;5031031;28;20026;-73
2023/08/22 03:57:49;;;;;;;7.32;4.75;;;;;;;;;;5028250;28;20022;-73
2023/08/22 04:00:14;;;;;;;10.00;5.47;;;;;;;;;;5035220;28;20586;-73
2023/08/22 04:02:40;;;;;;;12.27;6.57;;;;;;;;;;5036264;28;20141;-73
2023/08/22 04:05:05;;;;;;;12.75;6.45;;;;;;;;;;5018331;28;20025;-73
2023/08/22 04:07:31;;;;;;;9.20;6.35;;;;;;;;;;5035953;28;20025;-73
2023/08/22 04:09:56;;;;;;;11.02;6.43;;;;;;;;;;5018275;28;20112;-73
2023/08/22 04:12:21;;;;;;;7.82;4.93;;;;;;;;;;5034544;28;20024;-73
2023/08/22 04:14:46;;;;;;;10.60;5.00;;;;;;;;;;5034998;28;20049;-73
2023/08/22 04:17:12;;;;;;;7.97;5.28;;;;;;;;;;5035454;28;20021;-73
2023/08/22 04:19:38;;;;;;;10.50;5.50;;;;;;;;;;5033552;28;20143;-73
2023/08/22 04:22:03;;;;;;;9.43;4.72;;;;;;;;;;5001430;28;20464;-73
2023/08/22 04:24:29;;;;;;;9.13;5.60;;;;;;;;;;5028317;28;20057;-73
2023/08/22 04:26:54;;;;;;;10.18;5.63;;;;;;;;;;5015311;28;20435;-73
2023/08/22 04:29:19;;;;;;;9.18;5.38;;;;;;;;;;5030462;28;20076;-73
2023/08/22 04:31:45;;;;;;;7.50;4.60;;;;;;;;;;5017924;28;20053;-73
2023/08/22 04:34:10;;;;;;;8.02;5.78;;;;;;;;;;5035097;28;20033;-73
2023/08/22 04:36:35;;;;;;;9.27;4.43;;;;;;;;;;5035271;28;20364;-73
2023/08/22 04:39:00;;;;;;;8.13;5.40;;;;;;;;;;5034362;28;20083;-73
2023/08/22 04:41:26;;;;;;;9.40;5.22;;;;;;;;;;5028102;28;20040;-73
2023/08/22 04:43:51;;;;;;;6.28;3.92;;;;;;;;;;5034868;28;20470;-73
2023/08/22 04:46:16;;;;;;;9.88;5.45;;;;;;;;;;5034699;28;20025;-74
2023/08/22 04:48:41;;;;;;;9.02;5.55;;;;;;;;;;5034845;28;20040;-73
2023/08/22 04:51:07;;;;;;;12.48;6.80;;;;;;;;;;5017340;28;20032;-74
2023/08/22 04:53:32;;;;;;;14.38;7.47;;;;;;;;;;5034163;28;20025;-73
2023/08/22 04:55:57;;;;;;;17.70;7.25;;;;;;;;;;5033654;28;20026;-73
2023/08/22 04:58:23;;;;;;;12.63;6.53;;;;;;;;;;5031842;28;20087;-73
2023/08/22 05:00:48;;;;;;;14.65;7.45;;;;;;;;;;5028217;28;20052;-73
2023/08/22 05:03:19;;;;;;;12.52;7.03;;;;;;;;;;5030712;28;20028;-73
2023/08/22 05:05:44;;;;;;;18.92;8.45;;;;;;;;;;5017305;28;20404;-73
2023/08/22 05:08:09;;;;;;;18.52;9.85;;;;;;;;;;5034620;28;20048;-73
2023/08/22 05:10:34;;;;;;;9.32;5.65;;;;;;;;;;5034148;28;20025;-73
2023/08/22 05:13:00;;;;;;;13.57;6.72;;;;;;;;;;5027741;28;20116;-73
2023/08/22 05:15:25;;;;;;;14.20;6.63;;;;;;;;;;5037568;23;20050;-77
2023/08/22 05:17:51;;;;;;;10.43;5.93;;;;;;;;;;4997506;28;20033;-76
2023/08/22 05:20:16;;;;;;;9.50;6.05;;;;;;;;;;4997679;28;20033;-76
2023/08/22 05:22:41;;;;;;;10.40;5.80;;;;;;;;;;4997690;28;20029;-76
2023/08/22 05:25:07;;;;;;;16.55;8.75;;;;;;;;;;4997729;28;20026;-77
2023/08/22 05:27:32;;;;;;;16.17;9.48;;;;;;;;;;5014344;28;20053;-77
2023/08/22 05:29:58;;;;;;;12.60;8.13;;;;;;;;;;5015706;28;20021;-76
2023/08/22 05:32:23;;;;;;;20.63;9.07;;;;;;;;;;5011875;28;20431;-77
2023/08/22 05:34:48;;;;;;;14.52;7.55;;;;;;;;;;4979190;28;20026;-77
2023/08/22 05:37:14;;;;;;;12.70;6.80;;;;;;;;;;4977606;28;20030;-77
2023/08/22 05:39:39;;;;;;;13.98;8.63;;;;;;;;;;5010283;28;20096;-77
2023/08/22 05:42:05;;;;;;;13.13;7.45;;;;;;;;;;4996749;28;20479;-76
2023/08/22 05:44:32;;;;;;;13.68;7.75;;;;;;;;;;4997274;28;20065;-77
2023/08/22 05:46:57;;;;;;;16.23;8.57;;;;;;;;;;5014613;28;20488;-76
2023/08/22 05:49:22;;;;;;;16.30;7.85;;;;;;;;;;4981039;28;20032;-77
2023/08/22 05:51:48;;;;;;;12.57;7.90;;;;;;;;;;4994228;28;20026;-77
2023/08/22 05:54:13;;;;;;;17.35;8.70;;;;;;;;;;5013537;28;20117;-77
2023/08/22 05:56:38;;;;;;;21.15;9.23;;;;;;;;;;5000787;28;20033;-76
2023/08/22 05:59:04;;;;;;;16.13;8.00;;;;;;;;;;4994564;28;20022;-76
2023/08/22 06:01:29;;;;;;;17.52;8.88;;;;;;;;;;4998172;28;20030;-76
2023/08/22 06:03:54;;;;;;;15.48;8.07;;;;;;;;;;5014491;28;20029;-76
2023/08/22 06:06:19;;;;;;;14.60;8.82;;;;;;;;;;4976989;28;20050;-76
2023/08/22 06:08:45;;;;;;;15.73;8.75;;;;;;;;;;4960662;28;20025;-75
2023/08/22 06:11:10;;;;;;;17.23;9.60;;;;;;;;;;4985138;28;20030;-75
2023/08/22 06:13:35;;;;;;;16.35;8.88;;;;;;;;;;5013977;28;20030;-75
2023/08/22 06:16:01;;;;;;;13.35;7.43;;;;;;;;;;4996598;28;20017;-75
2023/08/22 06:18:26;;;;;;;15.60;8.43;;;;;;;;;;5024985;28;20025;-74
2023/08/22 06:20:51;;;;;;;20.75;9.75;;;;;;;;;;5014666;28;20100;-75
2023/08/22 06:23:16;;;;;;;15.68;8.15;;;;;;;;;;5023131;28;20026;-75
2023/08/22 06:25:42;;;;;;;16.75;8.40;;;;;;;;;;4991298;28;20053;-75
2023/08/22 06:28:07;;;;;;;16.92;8.23;;;;;;;;;;5011264;28;20018;-75
2023/08/22 06:30:33;;;;;;;17.15;8.65;;;;;;;;;;5013115;28;20056;-74
2023/08/22 06:32:58;;;;;;;15.38;9.05;;;;;;;;;;4996441;28;20112;-74
2023/08/22 06:35:25;;;;;;;19.00;9.70;;;;;;;;;;4996214;28;20029;-74
2023/08/22 06:37:50;;;;;;;19.17;9.35;;;;;;;;;;4995900;28;20026;-75
2023/08/22 06:40:16;;;;;;;14.38;8.02;;;;;;;;;;4980005;28;20022;-75
2023/08/22 06:42:41;;;;;;;17.00;7.60;;;;;;;;;;4995355;28;20392;-76
2023/08/22 06:45:07;;;;;;;16.17;8.45;;;;;;;;;;4996170;28;20026;-76
2023/08/22 06:47:32;;;;;;;14.02;7.43;;;;;;;;;;4992140;28;20018;-76
2023/08/22 06:49:58;;;;;;;16.80;7.97;;;;;;;;;;4993943;28;20083;-76
2023/08/22 06:52:23;;;;;;;15.48;6.88;;;;;;;;;;4993848;28;20029;-76
2023/08/22 06:54:48;;;;;;;14.30;8.15;;;;;;;;;;5012072;28;20032;-76
2023/08/22 06:57:13;;;;;;;12.20;7.35;;;;;;;;;;4995274;28;20025;-75
2023/08/22 06:59:39;;;;;;;13.45;7.07;;;;;;;;;;5001202;28;20492;-76
2023/08/22 07:02:04;;;;;;;14.35;6.15;;;;;;;;;;5009942;28;20049;-76
2023/08/22 07:04:30;;;;;;;16.95;7.22;;;;;;;;;;4976878;28;20054;-76
2023/08/22 07:06:55;;;;;;;17.75;7.10;;;;;;;;;;4976594;28;20019;-76
2023/08/22 07:09:21;;;;;;;13.27;5.82;;;;;;;;;;5008851;28;20030;-76
2023/08/22 07:11:46;;;;;;;10.15;6.13;;;;;;;;;;4995434;28;20029;-76
2023/08/22 07:14:11;;;;;;;11.90;5.75;;;;;;;;;;5013094;28;20041;-76
2023/08/22 07:16:36;;;;;;;11.23;6.72;;;;;;;;;;4995600;28;20113;-76
2023/08/22 07:19:02;;;;;;;12.85;6.22;;;;;;;;;;4995271;28;20856;-76
2023/08/22 07:21:27;;;;;;;13.80;6.60;;;;;;;;;;4979238;28;20052;-76
2023/08/22 07:23:52;;;;;;;12.45;6.55;;;;;;;;;;5012246;28;20094;-76
2023/08/22 07:26:18;;;;;;;12.30;5.47;;;;;;;;;;5013243;28;20029;-76
2023/08/22 07:28:43;;;;;;;13.55;4.85;;;;;;;;;;5012418;28;20022;-76
2023/08/22 07:31:08;;;;;;;10.32;4.75;;;;;;;;;;4995664;28;20504;-76
2023/08/22 07:33:34;;;;;;;7.88;4.65;;;;;;;;;;4998843;28;20075;-76
2023/08/22 07:36:00;;;;;;;10.80;4.50;;;;;;;;;;4998721;28;20025;-76
2023/08/22 07:38:26;;;;;;;8.27;4.28;;;;;;;;;;4999471;28;20052;-76
2023/08/22 07:40:51;;;;;;;9.80;4.50;;;;;;;;;;5017163;28;20022;-76
2023/08/22 07:43:16;;;;;;;7.88;3.75;;;;;;;;;;4999147;28;20096;-76
2023/08/22 07:45:41;;;;;;;10.65;3.58;;;;;;;;;;5020235;28;20390;-76
2023/08/22 07:48:07;;;;;;;5.18;2.97;;;;;;;;;;5028996;28;20046;-76
2023/08/22 07:50:33;;;;;;;6.22;2.97;;;;;;;;;;4998956;28;20117;-76
2023/08/22 07:52:58;;;;;;;8.88;3.15;;;;;;;;;;4995289;28;20492;-76
2023/08/22 07:55:24;;;;;;;9.68;3.05;;;;;;;;;;4980084;28;20023;-76
2023/08/22 07:57:50;;;;;;;13.73;4.63;;;;;;;;;;4997133;28;20050;-75
2023/08/22 08:00:16;;;;;;;13.32;3.75;;;;;;;;;;4998666;28;20113;-76
2023/08/22 08:02:42;;;;;;;6.20;2.75;;;;;;;;;;5015873;28;20036;-76
2023/08/22 08:05:07;;;;;;;5.78;2.42;;;;;;;;;;5015991;28;20029;-76
2023/08/22 08:07:34;;;;;;;6.20;2.30;;;;;;;;;;5016316;28;20048;-76
2023/08/22 08:09:59;;;;;;;6.30;2.55;;;;;;;;;;4998533;28;20030;-76
2023/08/22 08:12:24;;;;;;;4.65;2.40;;;;;;;;;;4998600;28;20025;-76
2023/08/22 08:14:50;;;;;;;3.60;1.58;;;;;;;;;;4993555;28;20451;-75
2023/08/22 08:17:17;;;;;;;4.85;2.20;;;;;;;;;;4982982;28;20034;-76
2023/08/22 08:19:43;;;;;;;6.05;2.30;;;;;;;;;;5015237;28;20048;-76
2023/08/22 08:22:08;;;;;;;6.45;2.63;;;;;;;;;;5014237;28;20500;-76
2023/08/22 08:24:33;;;;;;;4.35;2.00;;;;;;;;;;4998634;28;20030;-76
2023/08/22 08:26:58;;;;;;;5.22;2.45;;;;;;;;;;5015840;28;20025;-76
2023/08/22 08:29:24;;;;;;;4.55;2.17;;;;;;;;;;4982441;28;20021;-76
2023/08/22 08:31:49;;;;;;;3.67;1.73;;;;;;;;;;5015845;28;20422;-76
2023/08/22 08:34:14;;;;;;;2.90;1.98;;;;;;;;;;5015624;28;20022;-76
2023/08/22 08:36:39;;;;;;;4.18;2.22;;;;;;;;;;5015276;28;20033;-76
2023/08/22 08:39:05;;;;;;;4.93;2.60;;;;;;;;;;4998270;28;20029;-76
2023/08/22 08:41:33;;;;;;;5.22;1.77;;;;;;;;;;5015767;28;20030;-76
2023/08/22 08:43:59;;;;;;;2.42;1.73;;;;;;;;;;5014651;28;20041;-76
2023/08/22 08:46:29;;;;;;;4.55;1.63;;;;;;;;;;4989839;28;20523;-76
2023/08/22 08:48:54;;;;;;;3.15;1.55;;;;;;;;;;4995806;28;20112;-76
2023/08/22 08:51:20;;;;;;;4.05;1.90;;;;;;;;;;4980914;28;20109;-76
2023/08/22 08:53:46;;;;;;;3.08;1.52;;;;;;;;;;4984024;28;20022;-76
2023/08/22 08:56:12;;;;;;;4.35;1.70;;;;;;;;;;4998004;28;20088;-76
2023/08/22 08:58:38;;;;;;;5.30;1.90;;;;;;;;;;5014425;28;20472;-76
2023/08/22 09:01:05;;;;;;;6.18;2.00;;;;;;;;;;5015827;28;20468;-76
2023/08/22 09:03:31;;;;;;;3.67;1.63;;;;;;;;;;4992228;28;20053;-75
2023/08/22 09:05:56;;;;;;;5.78;2.10;;;;;;;;;;4978394;28;20030;-76
2023/08/22 09:08:23;;;;;;;5.78;1.77;;;;;;;;;;4984027;28;20105;-76
2023/08/22 09:10:53;;;;;;;3.28;1.73;;;;;;;;;;4997241;28;20105;-75
2023/08/22 09:13:29;;;;;;;3.55;1.50;;;;;;;;;;5015044;28;20029;-75
2023/08/22 09:15:59;;;;;;;5.28;1.73;;;;;;;;;;4981467;28;20044;-75
2023/08/22 09:18:24;;;;;;;2.80;1.50;;;;;;;;;;5014834;28;20018;-76
2023/08/22 09:20:50;;;;;;;3.15;1.50;;;;;;;;;;4996223;28;20022;-76
2023/08/22 09:23:28;;;;;;;3.03;1.60;;;;;;;;;;5014422;28;20448;-76
2023/08/22 09:25:54;;;;;;;3.45;1.80;;;;;;;;;;4993764;28;20029;-76
2023/08/22 09:28:19;;;;;;;1.80;1.38;;;;;;;;;;4992745;28;20019;-76
2023/08/22 09:30:49;;;;;;;4.80;1.70;;;;;;;;;;4977996;28;20121;-76
2023/08/22 09:33:15;;;;;;;3.08;1.80;;;;;;;;;;4978971;28;20105;-76
2023/08/22 09:35:41;;;;;;;5.70;1.70;;;;;;;;;;4996785;28;20026;-76
2023/08/22 09:38:07;;;;;;;3.33;1.80;;;;;;;;;;4996897;28;20022;-76
2023/08/22 09:40:33;;;;;;;2.10;1.20;;;;;;;;;;5007403;28;20388;-76
2023/08/22 09:42:59;;;;;;;13.75;2.20;;;;;;;;;;4997110;28;20040;-76
2023/08/22 09:45:26;;;;;;;3.47;1.60;;;;;;;;;;4977454;28;20026;-76
2023/08/22 09:47:52;;;;;;;3.13;1.50;;;;;;;;;;4994566;28;20041;-76
2023/08/22 09:50:18;;;;;;;3.10;1.38;;;;;;;;;;4994720;28;20400;-76
2023/08/22 09:52:44;;;;;;;2.53;1.67;;;;;;;;;;4996954;28;20017;-76
2023/08/22 09:55:10;;;;;;;4.18;1.67;;;;;;;;;;5008600;28;20048;-76
2023/08/22 09:57:36;;;;;;;4.82;1.70;;;;;;;;;;4995903;28;20065;-76
2023/08/22 10:00:04;;;;;;;3.38;1.50;;;;;;;;;;4978214;28;20103;-77
2023/08/22 10:02:30;;;;;;;3.17;1.70;;;;;;;;;;4996929;28;20029;-76
2023/08/22 10:04:55;;;;;;;5.22;1.60;;;;;;;;;;5014024;28;20014;-76
2023/08/22 10:07:21;;;;;;;5.72;1.60;;;;;;;;;;4996796;28;20402;-76
2023/08/22 10:09:46;;;;;;;4.15;2.50;;;;;;;;;;5013436;28;20029;-76
2023/08/22 10:12:14;;;;;;;3.03;1.13;;;;;;;;;;4996465;28;20412;-76
2023/08/22 10:14:42;;;;;;;3.63;1.85;;;;;;;;;;4996168;28;20507;-76
2023/08/22 10:17:14;;;;;;;4.30;1.60;;;;;;;;;;4980253;28;20045;-76
2023/08/22 10:19:41;;;;;;;4.10;1.60;;;;;;;;;;5010522;28;20057;-77
2023/08/22 10:22:07;;;;;;;2.65;1.50;;;;;;;;;;4996502;28;20073;-76
2023/08/22 10:24:33;;;;;;;3.28;1.55;;;;;;;;;;4987634;28;20030;-76
2023/08/22 10:27:12;;;;;;;3.13;1.50;;;;;;;;;;4976848;28;20493;-76
2023/08/22 10:29:45;;;;;;;3.30;1.70;;;;;;;;;;4995591;28;20022;-76
2023/08/22 10:32:10;;;;;;;3.13;1.38;;;;;;;;;;4995750;28;20349;-76
2023/08/22 10:34:41;;;;;;;3.50;1.63;;;;;;;;;;5012468;28;20041;-76
2023/08/22 10:37:16;;;;;;;3.55;1.50;;;;;;;;;;5008909;28;20450;-76
2023/08/22 10:39:43;;;;;;;3.78;1.60;;;;;;;;;;5013455;28;20388;-76
2023/08/22 10:42:16;;;;;;;4.47;1.70;;;;;;;;;;5026634;28;20127;-76
2023/08/22 10:44:42;;;;;;;3.13;1.75;;;;;;;;;;5002179;28;20053;-76
2023/08/22 10:47:17;;;;;;;5.15;1.80;;;;;;;;;;4995816;28;20102;-76
2023/08/22 10:49:43;;;;;;;4.28;1.42;;;;;;;;;;4996009;28;20033;-76
2023/08/22 10:52:09;;;;;;;4.22;1.73;;;;;;;;;;4996168;28;20025;-76
2023/08/22 10:55:02;;;;;;;4.25;1.65;;;;;;;;;;5013177;28;20037;-76
2023/08/22 10:57:38;;;;;;;4.35;1.63;;;;;;;;;;4995901;28;20041;-76
2023/08/22 11:00:12;;;;;;;4.75;2.28;;;;;;;;;;4995731;28;20030;-76
2023/08/22 11:02:39;;;;;;;5.32;1.63;;;;;;;;;;5013256;28;20041;-76
2023/08/22 11:05:10;;;;;;;3.58;1.77;;;;;;;;;;4995851;28;20480;-76
2023/08/22 11:07:36;;;;;;;4.90;1.83;;;;;;;;;;5012922;28;20022;-76
2023/08/22 11:10:03;;;;;;;4.03;2.05;;;;;;;;;;4995344;28;20025;-76
2023/08/22 11:12:28;;;;;;;2.75;1.40;;;;;;;;;;4995784;28;20025;-76
2023/08/22 11:14:57;;;;;;;4.00;2.03;;;;;;;;;;5028242;23;20037;-78
2023/08/22 11:17:25;;;;;;;3.03;1.23;;;;;;;;;;5015476;28;20044;-77
2023/08/22 11:19:55;;;;;;;3.38;1.70;;;;;;;;;;5032259;28;20156;-76
2023/08/22 11:22:20;;;;;;;5.10;2.03;;;;;;;;;;5032047;28;20025;-76
2023/08/22 11:24:46;;;;;;;3.60;1.63;;;;;;;;;;5032666;28;20383;-77
2023/08/22 11:27:12;;;;;;;3.67;2.40;;;;;;;;;;5034189;28;20021;-76
2023/08/22 11:29:43;;;;;;;3.45;1.35;;;;;;;;;;5016489;28;20445;-78
2023/08/22 11:32:23;;;;;;;2.72;1.50;;;;;;;;;;5032350;28;20075;-76
2023/08/22 11:34:50;;;;;;;2.22;1.13;;;;;;;;;;5034007;28;20428;-77
2023/08/22 11:37:18;;;;;;;3.97;1.50;;;;;;;;;;5015961;28;20022;-76
2023/08/22 11:39:48;;;;;;;2.35;1.40;;;;;;;;;;4997842;28;20053;-78
2023/08/22 11:42:15;;;;;;;3.53;1.30;;;;;;;;;;5016843;28;20088;-77
2023/08/22 11:45:10;;;;;;;3.75;1.58;;;;;;;;;;5015005;28;20026;-78
2023/08/22 11:47:39;;;;;;;2.47;1.40;;;;;;;;;;5024447;28;20030;-76
2023/08/22 11:50:06;;;;;;;3.03;1.40;;;;;;;;;;4996932;28;20072;-78
2023/08/22 11:52:31;;;;;;;4.53;1.40;;;;;;;;;;4997348;28;20033;-77
2023/08/22 11:55:07;;;;;;;1.88;1.05;;;;;;;;;;5000575;28;20360;-77
2023/08/22 11:57:34;;;;;;;1.67;0.98;;;;;;;;;;5022676;28;20364;-77
2023/08/22 12:00:04;;;;;;;1.90;1.42;;;;;;;;;;5018852;28;20032;-77
2023/08/22 12:02:33;;;;;;;2.55;1.40;;;;;;;;;;5004457;28;20377;-76
2023/08/22 12:04:59;;;;;;;3.50;2.00;;;;;;;;;;5015894;28;20026;-77
2023/08/22 12:07:24;;;;;;;2.72;1.40;;;;;;;;;;4997927;28;20072;-78
2023/08/22 12:10:00;;;;;;;3.05;1.50;;;;;;;;;;5014914;28;20018;-76
2023/08/22 12:12:25;;;;;;;2.67;1.20;;;;;;;;;;4998214;28;20095;-77
2023/08/22 12:14:51;;;;;;;3.92;1.50;;;;;;;;;;4981910;28;20508;-77
2023/08/22 12:17:16;;;;;;;3.97;2.15;;;;;;;;;;5015512;28;20116;-77
2023/08/22 12:19:43;;;;;;;2.40;1.50;;;;;;;;;;4998859;28;20025;-76
2023/08/22 12:22:08;;;;;;;3.25;1.55;;;;;;;;;;5001145;28;20391;-76
2023/08/22 12:24:34;;;;;;;2.15;1.50;;;;;;;;;;5001227;28;20030;-76
2023/08/22 12:26:59;;;;;;;4.95;1.85;;;;;;;;;;5025155;23;20037;-76
2023/08/22 12:29:27;;;;;;;3.15;1.70;;;;;;;;;;5037364;28;20446;-76
2023/08/22 12:31:52;;;;;;;2.53;1.50;;;;;;;;;;5020167;28;20036;-76
2023/08/22 12:34:18;;;;;;;5.28;1.80;;;;;;;;;;5037479;28;20038;-76
2023/08/22 12:36:43;;;;;;;2.83;1.70;;;;;;;;;;5037280;28;20022;-76
2023/08/22 12:39:12;;;;;;;6.75;2.00;;;;;;;;;;5021505;28;20072;-76
2023/08/22 12:41:40;;;;;;;4.55;1.85;;;;;;;;;;5036823;28;20033;-77
2023/08/22 12:44:05;;;;;;;6.68;1.80;;;;;;;;;;5020805;28;20373;-76
2023/08/22 12:46:30;;;;;;;3.67;1.83;;;;;;;;;;5036966;28;20029;-77
2023/08/22 12:48:56;;;;;;;4.55;1.42;;;;;;;;;;5021905;28;20409;-77
2023/08/22 12:51:22;;;;;;;4.45;1.80;;;;;;;;;;5039276;28;20017;-77
2023/08/22 12:53:47;;;;;;;6.55;1.95;;;;;;;;;;5037684;28;20590;-77
2023/08/22 12:56:12;;;;;;;7.95;2.40;;;;;;;;;;5037363;28;20082;-77
2023/08/22 12:58:38;;;;;;;3.72;1.70;;;;;;;;;;5038843;28;20045;-76
2023/08/22 13:01:03;;;;;;;5.38;2.30;;;;;;;;;;5041136;28;20523;-77
2023/08/22 13:03:30;;;;;;;3.95;1.50;;;;;;;;;;5040426;28;20446;-77
2023/08/22 13:05:55;;;;;;;4.28;1.73;;;;;;;;;;5022721;28;20025;-77
2023/08/22 13:08:21;;;;;;;3.03;1.75;;;;;;;;;;5040605;28;20045;-77
2023/08/22 13:10:46;;;;;;;4.60;2.08;;;;;;;;;;5041739;28;20029;-77
2023/08/22 13:13:11;;;;;;;5.15;2.20;;;;;;;;;;5041355;28;20072;-77
2023/08/22 13:15:37;;;;;;;7.10;1.70;;;;;;;;;;5040179;28;20124;-77
2023/08/22 13:18:02;;;;;;;5.95;2.00;;;;;;;;;;5008193;28;20025;-77
2023/08/22 13:20:30;;;;;;;3.92;2.10;;;;;;;;;;5024624;28;20092;-77
2023/08/22 13:22:55;;;;;;;5.60;2.00;;;;;;;;;;5024233;28;20085;-77
2023/08/22 13:25:20;;;;;;;4.00;2.00;;;;;;;;;;5041120;28;20114;-77
2023/08/22 13:27:45;;;;;;;3.28;1.80;;;;;;;;;;5024241;28;20029;-77
2023/08/22 13:30:11;;;;;;;4.18;1.83;;;;;;;;;;5037923;28;20387;-77
2023/08/22 13:32:42;;;;;;;6.32;2.30;;;;;;;;;;5041179;28;20032;-77
2023/08/22 13:35:14;;;;;;;5.82;2.20;;;;;;;;;;5008083;28;20024;-77
2023/08/22 13:37:39;;;;;;;6.25;2.20;;;;;;;;;;5040567;28;20032;-77
2023/08/22 13:40:05;;;;;;;7.30;2.40;;;;;;;;;;5035467;28;20100;-77
2023/08/22 13:42:30;;;;;;;6.72;2.47;;;;;;;;;;5035275;28;20124;-77
2023/08/22 13:44:56;;;;;;;6.72;1.92;;;;;;;;;;5018288;28;20464;-78
2023/08/22 13:47:21;;;;;;;6.97;2.10;;;;;;;;;;5018930;28;20022;-78
2023/08/22 13:49:46;;;;;;;3.55;2.05;;;;;;;;;;5019534;28;20033;-77
2023/08/22 13:52:11;;;;;;;4.45;1.75;;;;;;;;;;5038290;28;20387;-77
2023/08/22 13:54:37;;;;;;;4.93;2.00;;;;;;;;;;5036638;28;20110;-76
2023/08/22 13:57:03;;;;;;;5.35;2.58;;;;;;;;;;5038399;28;20047;-77
2023/08/22 13:59:29;;;;;;;3.08;2.00;;;;;;;;;;5020059;28;20407;-77
2023/08/22 14:01:54;;;;;;;7.85;2.97;;;;;;;;;;5039326;28;20022;-77
2023/08/22 14:04:20;;;;;;;5.90;2.50;;;;;;;;;;5038129;28;20021;-77
2023/08/22 14:06:45;;;;;;;8.32;2.67;;;;;;;;;;5036728;28;20025;-77
2023/08/22 14:09:11;;;;;;;4.65;2.00;;;;;;;;;;5035003;28;20429;-76
2023/08/22 14:11:36;;;;;;;5.20;2.15;;;;;;;;;;5018091;28;20079;-77
2023/08/22 14:14:01;;;;;;;4.88;2.47;;;;;;;;;;5034595;28;20025;-77
2023/08/22 14:16:27;;;;;;;6.88;2.50;;;;;;;;;;5035078;28;20551;-77
2023/08/22 14:18:52;;;;;;;4.75;2.45;;;;;;;;;;5034745;28;20021;-76
2023/08/22 14:21:17;;;;;;;5.95;2.30;;;;;;;;;;5017766;28;20033;-76
2023/08/22 14:23:42;;;;;;;3.33;1.95;;;;;;;;;;5035051;28;20487;-76
2023/08/22 14:26:08;;;;;;;3.78;2.20;;;;;;;;;;5034439;28;20105;-76
2023/08/22 14:28:33;;;;;;;5.05;2.40;;;;;;;;;;5034995;28;20013;-76
2023/08/22 14:31:02;;;;;;;3.75;2.05;;;;;;;;;;5033504;28;20040;-76
2023/08/22 14:33:29;;;;;;;5.95;2.20;;;;;;;;;;5017633;28;20032;-76